Terminal Aerodrome Forecast
Issued by NWS Louisville, KY

Home | Current Version | Previous Version | Text Only | Print | Product List | Glossary On
Versions: 1 2 3 4 5 6 7 8 9 10 11 12 13 14 15 16 17 18 19 20 21 22 23 24
000
FTUS43 KLMK 011900 AAA
TAFSDF
TAF AMD
KSDF 011919Z 0119/0224 02008KT P6SM BKN012
     FM020700 04005KT 6SM BR BKN008
     FM021500 04006KT P6SM BKN015 OVC025=

USA.gov is the U.S. government's official web portal to all federal, state and local government web resources and services.